sensor_id;sensor_type;location;lat;lon;timestamp;temperature;humidity
820;DHT22;392;48.838;2.322;2023-02-28T00:01:26;3.50;24.20
820;DHT22;392;48.838;2.322;2023-02-28T00:03:54;3.60;24.20
820;DHT22;392;48.838;2.322;2023-02-28T00:06:22;3.60;24.10
820;DHT22;392;48.838;2.322;2023-02-28T00:08:49;3.60;24.10
820;DHT22;392;48.838;2.322;2023-02-28T00:11:18;3.60;24.00
820;DHT22;392;48.838;2.322;2023-02-28T00:13:46;3.60;24.60
820;DHT22;392;48.838;2.322;2023-02-28T00:16:16;3.50;24.00
820;DHT22;392;48.838;2.322;2023-02-28T00:18:44;3.50;24.20
820;DHT22;392;48.838;2.322;2023-02-28T00:21:13;3.40;24.30
820;DHT22;392;48.838;2.322;2023-02-28T00:23:41;3.40;24.50
820;DHT22;392;48.838;2.322;2023-02-28T00:26:08;3.40;24.50
820;DHT22;392;48.838;2.322;2023-02-28T00:28:38;3.40;24.70
820;DHT22;392;48.838;2.322;2023-02-28T00:31:05;3.40;24.70
820;DHT22;392;48.838;2.322;2023-02-28T00:33:32;3.40;24.50
820;DHT22;392;48.838;2.322;2023-02-28T00:36:05;3.40;24.40
820;DHT22;392;48.838;2.322;2023-02-28T00:38:36;3.40;24.40
820;DHT22;392;48.838;2.322;2023-02-28T00:41:04;3.50;24.30
820;DHT22;392;48.838;2.322;2023-02-28T00:43:33;3.40;24.30
820;DHT22;392;48.838;2.322;2023-02-28T00:46:03;3.40;24.20
820;DHT22;392;48.838;2.322;2023-02-28T00:48:31;3.30;24.30
820;DHT22;392;48.838;2.322;2023-02-28T00:50:59;3.30;24.50
820;DHT22;392;48.838;2.322;2023-02-28T00:53:27;3.30;24.60
820;DHT22;392;48.838;2.322;2023-02-28T00:55:57;3.30;24.60
820;DHT22;392;48.838;2.322;2023-02-28T00:58:25;3.30;24.50
820;DHT22;392;48.838;2.322;2023-02-28T01:00:53;3.30;24.40
820;DHT22;392;48.838;2.322;2023-02-28T01:03:22;3.40;24.30
820;DHT22;392;48.838;2.322;2023-02-28T01:05:51;3.40;24.00
820;DHT22;392;48.838;2.322;2023-02-28T01:08:19;3.40;23.90
820;DHT22;392;48.838;2.322;2023-02-28T01:10:47;3.40;23.70
820;DHT22;392;48.838;2.322;2023-02-28T01:13:15;3.40;23.80
820;DHT22;392;48.838;2.322;2023-02-28T01:15:46;3.30;23.90
820;DHT22;392;48.838;2.322;2023-02-28T01:18:16;3.30;24.00
820;DHT22;392;48.838;2.322;2023-02-28T01:20:45;3.20;24.00
820;DHT22;392;48.838;2.322;2023-02-28T01:23:13;3.20;23.90
820;DHT22;392;48.838;2.322;2023-02-28T01:25:41;3.10;23.60
820;DHT22;392;48.838;2.322;2023-02-28T01:28:08;3.10;23.60
820;DHT22;392;48.838;2.322;2023-02-28T01:30:36;3.00;23.90
820;DHT22;392;48.838;2.322;2023-02-28T01:33:03;3.10;23.90
820;DHT22;392;48.838;2.322;2023-02-28T01:35:32;3.00;24.00
820;DHT22;392;48.838;2.322;2023-02-28T01:38:01;3.10;23.90
820;DHT22;392;48.838;2.322;2023-02-28T01:40:30;3.00;23.80
820;DHT22;392;48.838;2.322;2023-02-28T01:42:58;3.00;23.50
820;DHT22;392;48.838;2.322;2023-02-28T01:45:27;3.00;23.60
820;DHT22;392;48.838;2.322;2023-02-28T01:48:00;3.10;23.60
820;DHT22;392;48.838;2.322;2023-02-28T01:50:32;3.10;23.50
820;DHT22;392;48.838;2.322;2023-02-28T01:53:07;3.00;23.50
820;DHT22;392;48.838;2.322;2023-02-28T01:55:39;3.00;23.50
820;DHT22;392;48.838;2.322;2023-02-28T01:58:07;2.90;23.50
820;DHT22;392;48.838;2.322;2023-02-28T02:00:35;2.90;23.80
820;DHT22;392;48.838;2.322;2023-02-28T02:03:07;2.90;24.10
820;DHT22;392;48.838;2.322;2023-02-28T02:05:37;2.90;24.00
820;DHT22;392;48.838;2.322;2023-02-28T02:08:09;2.90;24.20
820;DHT22;392;48.838;2.322;2023-02-28T02:10:41;2.90;24.20
820;DHT22;392;48.838;2.322;2023-02-28T02:13:29;2.90;24.30
820;DHT22;392;48.838;2.322;2023-02-28T02:16:13;2.90;24.20
820;DHT22;392;48.838;2.322;2023-02-28T02:18:51;2.80;24.30
820;DHT22;392;48.838;2.322;2023-02-28T02:21:50;2.80;24.30
820;DHT22;392;48.838;2.322;2023-02-28T02:25:08;2.80;24.40
820;DHT22;392;48.838;2.322;2023-02-28T02:31:20;2.80;24.30
820;DHT22;392;48.838;2.322;2023-02-28T02:34:35;2.80;24.30
820;DHT22;392;48.838;2.322;2023-02-28T02:37:26;2.70;24.10
820;DHT22;392;48.838;2.322;2023-02-28T02:40:04;2.60;24.10
820;DHT22;392;48.838;2.322;2023-02-28T02:42:41;2.60;24.30
820;DHT22;392;48.838;2.322;2023-02-28T02:45:16;2.60;24.20
820;DHT22;392;48.838;2.322;2023-02-28T02:47:46;2.70;24.10
820;DHT22;392;48.838;2.322;2023-02-28T02:50:21;2.60;24.70
820;DHT22;392;48.838;2.322;2023-02-28T02:52:54;2.60;23.90
820;DHT22;392;48.838;2.322;2023-02-28T02:55:24;2.60;24.40
820;DHT22;392;48.838;2.322;2023-02-28T02:57:54;2.60;23.60
820;DHT22;392;48.838;2.322;2023-02-28T03:00:29;2.50;24.20
820;DHT22;392;48.838;2.322;2023-02-28T03:02:58;2.50;23.70
820;DHT22;392;48.838;2.322;2023-02-28T03:05:33;2.50;23.80
820;DHT22;392;48.838;2.322;2023-02-28T03:08:04;2.50;23.40
820;DHT22;392;48.838;2.322;2023-02-28T03:10:36;2.50;23.30
820;DHT22;392;48.838;2.322;2023-02-28T03:16:29;2.50;23.20
820;DHT22;392;48.838;2.322;2023-02-28T03:19:08;2.50;23.30
820;DHT22;392;48.838;2.322;2023-02-28T03:21:49;2.60;23.10
820;DHT22;392;48.838;2.322;2023-02-28T03:24:26;2.60;22.60
820;DHT22;392;48.838;2.322;2023-02-28T03:27:02;2.50;22.80
820;DHT22;392;48.838;2.322;2023-02-28T03:29:37;2.50;22.90
820;DHT22;392;48.838;2.322;2023-02-28T03:32:13;2.50;22.60
820;DHT22;392;48.838;2.322;2023-02-28T03:34:51;2.50;22.60
820;DHT22;392;48.838;2.322;2023-02-28T03:37:24;2.50;22.50
820;DHT22;392;48.838;2.322;2023-02-28T03:39:56;2.50;22.40
820;DHT22;392;48.838;2.322;2023-02-28T03:42:27;2.40;22.60
820;DHT22;392;48.838;2.322;2023-02-28T03:44:59;2.40;22.60
820;DHT22;392;48.838;2.322;2023-02-28T03:47:32;2.40;22.60
820;DHT22;392;48.838;2.322;2023-02-28T03:50:06;2.50;22.40
820;DHT22;392;48.838;2.322;2023-02-28T03:52:41;2.40;22.30
820;DHT22;392;48.838;2.322;2023-02-28T03:55:11;2.40;22.40
820;DHT22;392;48.838;2.322;2023-02-28T03:57:43;2.30;22.50
820;DHT22;392;48.838;2.322;2023-02-28T04:00:20;2.30;22.40
820;DHT22;392;48.838;2.322;2023-02-28T04:02:54;2.30;22.30
820;DHT22;392;48.838;2.322;2023-02-28T04:05:22;2.30;22.90
820;DHT22;392;48.838;2.322;2023-02-28T04:07:52;2.20;22.40
820;DHT22;392;48.838;2.322;2023-02-28T04:10:20;2.30;22.50
820;DHT22;392;48.838;2.322;2023-02-28T04:12:47;2.30;22.40
820;DHT22;392;48.838;2.322;2023-02-28T04:15:14;2.40;22.20
820;DHT22;392;48.838;2.322;2023-02-28T04:17:42;2.40;22.20
820;DHT22;392;48.838;2.322;2023-02-28T04:20:10;2.40;22.90
820;DHT22;392;48.838;2.322;2023-02-28T04:22:38;2.40;22.40
820;DHT22;392;48.838;2.322;2023-02-28T04:25:07;2.40;22.90
820;DHT22;392;48.838;2.322;2023-02-28T04:27:35;2.40;22.20
820;DHT22;392;48.838;2.322;2023-02-28T04:30:03;2.50;22.20
820;DHT22;392;48.838;2.322;2023-02-28T04:32:31;2.40;22.10
820;DHT22;392;48.838;2.322;2023-02-28T04:34:58;2.40;22.10
820;DHT22;392;48.838;2.322;2023-02-28T04:37:26;2.40;22.40
820;DHT22;392;48.838;2.322;2023-02-28T04:39:54;2.30;22.50
820;DHT22;392;48.838;2.322;2023-02-28T04:42:23;2.20;22.70
820;DHT22;392;48.838;2.322;2023-02-28T04:44:50;2.30;22.90
820;DHT22;392;48.838;2.322;2023-02-28T04:47:18;2.30;23.10
820;DHT22;392;48.838;2.322;2023-02-28T04:49:46;2.30;22.50
820;DHT22;392;48.838;2.322;2023-02-28T04:52:13;2.40;23.10
820;DHT22;392;48.838;2.322;2023-02-28T04:54:40;2.40;22.60
820;DHT22;392;48.838;2.322;2023-02-28T04:57:07;2.30;23.30
820;DHT22;392;48.838;2.322;2023-02-28T04:59:36;2.30;22.80
820;DHT22;392;48.838;2.322;2023-02-28T05:02:04;2.30;22.80
820;DHT22;392;48.838;2.322;2023-02-28T05:04:32;2.30;22.80
820;DHT22;392;48.838;2.322;2023-02-28T05:07:01;2.30;23.20
820;DHT22;392;48.838;2.322;2023-02-28T05:09:28;2.30;22.40
820;DHT22;392;48.838;2.322;2023-02-28T05:11:56;2.30;22.40
820;DHT22;392;48.838;2.322;2023-02-28T05:14:24;2.20;22.20
820;DHT22;392;48.838;2.322;2023-02-28T05:16:52;2.20;22.30
820;DHT22;392;48.838;2.322;2023-02-28T05:19:20;2.20;22.40
820;DHT22;392;48.838;2.322;2023-02-28T05:21:52;2.10;22.50
820;DHT22;392;48.838;2.322;2023-02-28T05:24:21;2.10;22.70
820;DHT22;392;48.838;2.322;2023-02-28T05:26:51;2.20;22.80
820;DHT22;392;48.838;2.322;2023-02-28T05:29:20;2.20;22.80
820;DHT22;392;48.838;2.322;2023-02-28T05:31:48;2.30;22.60
820;DHT22;392;48.838;2.322;2023-02-28T05:34:17;2.40;22.30
820;DHT22;392;48.838;2.322;2023-02-28T05:36:44;2.40;22.60
820;DHT22;392;48.838;2.322;2023-02-28T05:39:12;2.30;22.30
820;DHT22;392;48.838;2.322;2023-02-28T05:41:40;2.20;22.40
820;DHT22;392;48.838;2.322;2023-02-28T05:44:08;2.20;22.80
820;DHT22;392;48.838;2.322;2023-02-28T05:46:35;2.10;23.00
820;DHT22;392;48.838;2.322;2023-02-28T05:49:04;2.10;23.30
820;DHT22;392;48.838;2.322;2023-02-28T05:51:33;2.20;23.20
820;DHT22;392;48.838;2.322;2023-02-28T05:54:02;2.30;23.10
820;DHT22;392;48.838;2.322;2023-02-28T05:56:29;2.40;22.90
820;DHT22;392;48.838;2.322;2023-02-28T05:58:57;2.40;23.00
820;DHT22;392;48.838;2.322;2023-02-28T06:01:32;2.40;23.20
820;DHT22;392;48.838;2.322;2023-02-28T06:04:01;2.40;23.20
820;DHT22;392;48.838;2.322;2023-02-28T06:06:30;2.40;23.30
820;DHT22;392;48.838;2.322;2023-02-28T06:08:58;2.50;24.20
820;DHT22;392;48.838;2.322;2023-02-28T06:11:26;2.40;24.10
820;DHT22;392;48.838;2.322;2023-02-28T06:13:54;2.40;24.70
820;DHT22;392;48.838;2.322;2023-02-28T06:16:22;2.30;24.80
820;DHT22;392;48.838;2.322;2023-02-28T06:18:50;2.20;25.00
820;DHT22;392;48.838;2.322;2023-02-28T06:21:18;2.20;26.00
820;DHT22;392;48.838;2.322;2023-02-28T06:23:45;2.20;25.80
820;DHT22;392;48.838;2.322;2023-02-28T06:26:14;2.10;26.20
820;DHT22;392;48.838;2.322;2023-02-28T06:28:42;2.10;26.40
820;DHT22;392;48.838;2.322;2023-02-28T06:31:10;2.10;26.50
820;DHT22;392;48.838;2.322;2023-02-28T06:33:39;2.10;26.60
820;DHT22;392;48.838;2.322;2023-02-28T06:36:08;2.10;27.10
820;DHT22;392;48.838;2.322;2023-02-28T06:38:36;2.10;26.90
820;DHT22;392;48.838;2.322;2023-02-28T06:41:04;2.10;27.00
820;DHT22;392;48.838;2.322;2023-02-28T06:43:35;2.10;27.10
820;DHT22;392;48.838;2.322;2023-02-28T06:46:06;2.10;27.20
820;DHT22;392;48.838;2.322;2023-02-28T06:48:35;2.10;27.30
820;DHT22;392;48.838;2.322;2023-02-28T06:51:04;2.10;27.50
820;DHT22;392;48.838;2.322;2023-02-28T06:53:33;2.10;27.50
820;DHT22;392;48.838;2.322;2023-02-28T06:56:04;2.10;27.70
820;DHT22;392;48.838;2.322;2023-02-28T06:58:34;2.10;27.80
820;DHT22;392;48.838;2.322;2023-02-28T07:01:02;2.10;27.80
820;DHT22;392;48.838;2.322;2023-02-28T07:03:29;2.10;27.80
820;DHT22;392;48.838;2.322;2023-02-28T07:05:57;2.20;28.00
820;DHT22;392;48.838;2.322;2023-02-28T07:08:25;2.10;27.90
820;DHT22;392;48.838;2.322;2023-02-28T07:10:53;2.20;28.20
820;DHT22;392;48.838;2.322;2023-02-28T07:13:22;2.20;28.20
820;DHT22;392;48.838;2.322;2023-02-28T07:15:55;2.20;28.00
820;DHT22;392;48.838;2.322;2023-02-28T07:18:24;2.10;28.70
820;DHT22;392;48.838;2.322;2023-02-28T07:20:51;2.10;28.20
820;DHT22;392;48.838;2.322;2023-02-28T07:23:20;2.10;28.40
820;DHT22;392;48.838;2.322;2023-02-28T07:25:47;2.10;28.60
820;DHT22;392;48.838;2.322;2023-02-28T07:28:16;2.00;28.90
820;DHT22;392;48.838;2.322;2023-02-28T07:30:43;2.00;28.90
820;DHT22;392;48.838;2.322;2023-02-28T07:33:12;2.10;29.00
820;DHT22;392;48.838;2.322;2023-02-28T07:35:39;2.20;28.70
820;DHT22;392;48.838;2.322;2023-02-28T07:38:07;2.20;28.70
820;DHT22;392;48.838;2.322;2023-02-28T07:40:35;2.30;28.60
820;DHT22;392;48.838;2.322;2023-02-28T07:43:03;2.30;28.30
820;DHT22;392;48.838;2.322;2023-02-28T07:45:31;2.30;28.30
820;DHT22;392;48.838;2.322;2023-02-28T07:48:00;2.30;28.50
820;DHT22;392;48.838;2.322;2023-02-28T07:50:29;2.30;28.90
820;DHT22;392;48.838;2.322;2023-02-28T07:52:57;2.30;28.10
820;DHT22;392;48.838;2.322;2023-02-28T07:55:25;2.20;28.40
820;DHT22;392;48.838;2.322;2023-02-28T07:57:52;2.20;28.20
820;DHT22;392;48.838;2.322;2023-02-28T08:00:20;2.30;28.40
820;DHT22;392;48.838;2.322;2023-02-28T08:02:48;2.30;28.30
820;DHT22;392;48.838;2.322;2023-02-28T08:05:15;2.30;28.10
820;DHT22;392;48.838;2.322;2023-02-28T08:07:44;2.30;28.30
820;DHT22;392;48.838;2.322;2023-02-28T08:10:13;2.40;28.40
820;DHT22;392;48.838;2.322;2023-02-28T08:12:40;2.40;28.40
820;DHT22;392;48.838;2.322;2023-02-28T08:15:09;2.40;28.10
820;DHT22;392;48.838;2.322;2023-02-28T08:17:36;2.40;28.20
820;DHT22;392;48.838;2.322;2023-02-28T08:20:04;2.50;28.10
820;DHT22;392;48.838;2.322;2023-02-28T08:22:33;2.40;28.10
820;DHT22;392;48.838;2.322;2023-02-28T08:25:02;2.40;28.80
820;DHT22;392;48.838;2.322;2023-02-28T08:27:29;2.50;28.40
820;DHT22;392;48.838;2.322;2023-02-28T08:29:57;2.60;28.30
820;DHT22;392;48.838;2.322;2023-02-28T08:32:24;2.70;27.40
820;DHT22;392;48.838;2.322;2023-02-28T08:34:52;2.60;27.90
820;DHT22;392;48.838;2.322;2023-02-28T08:37:19;2.60;27.60
820;DHT22;392;48.838;2.322;2023-02-28T08:39:46;2.60;27.30
820;DHT22;392;48.838;2.322;2023-02-28T08:42:15;2.60;27.30
820;DHT22;392;48.838;2.322;2023-02-28T08:44:43;2.50;27.60
820;DHT22;392;48.838;2.322;2023-02-28T08:47:10;2.60;27.60
820;DHT22;392;48.838;2.322;2023-02-28T08:49:37;2.60;27.60
820;DHT22;392;48.838;2.322;2023-02-28T08:52:05;2.70;27.80
820;DHT22;392;48.838;2.322;2023-02-28T08:54:32;2.70;27.30
820;DHT22;392;48.838;2.322;2023-02-28T08:57:00;2.90;27.40
820;DHT22;392;48.838;2.322;2023-02-28T08:59:29;3.00;26.50
820;DHT22;392;48.838;2.322;2023-02-28T09:01:57;3.00;26.30
820;DHT22;392;48.838;2.322;2023-02-28T09:04:24;3.10;26.70
820;DHT22;392;48.838;2.322;2023-02-28T09:06:52;3.00;26.20
820;DHT22;392;48.838;2.322;2023-02-28T09:09:19;3.10;26.00
820;DHT22;392;48.838;2.322;2023-02-28T09:11:46;3.20;25.40
820;DHT22;392;48.838;2.322;2023-02-28T09:14:14;3.20;25.40
820;DHT22;392;48.838;2.322;2023-02-28T09:16:44;3.20;25.40
820;DHT22;392;48.838;2.322;2023-02-28T09:19:12;3.20;25.90
820;DHT22;392;48.838;2.322;2023-02-28T09:21:40;3.30;25.20
820;DHT22;392;48.838;2.322;2023-02-28T09:24:08;3.30;24.40
820;DHT22;392;48.838;2.322;2023-02-28T09:26:37;3.20;24.60
820;DHT22;392;48.838;2.322;2023-02-28T09:29:05;3.30;24.50
820;DHT22;392;48.838;2.322;2023-02-28T09:31:32;3.40;24.40
820;DHT22;392;48.838;2.322;2023-02-28T09:34:01;3.50;23.80
820;DHT22;392;48.838;2.322;2023-02-28T09:36:28;3.50;23.60
820;DHT22;392;48.838;2.322;2023-02-28T09:38:56;3.60;23.30
820;DHT22;392;48.838;2.322;2023-02-28T09:41:26;3.60;23.30
820;DHT22;392;48.838;2.322;2023-02-28T09:43:59;3.70;23.10
820;DHT22;392;48.838;2.322;2023-02-28T09:46:32;3.70;22.90
820;DHT22;392;48.838;2.322;2023-02-28T09:49:07;3.80;23.00
820;DHT22;392;48.838;2.322;2023-02-28T09:51:46;3.80;22.70
820;DHT22;392;48.838;2.322;2023-02-28T09:54:19;3.70;22.90
820;DHT22;392;48.838;2.322;2023-02-28T09:56:50;3.80;22.90
820;DHT22;392;48.838;2.322;2023-02-28T09:59:32;3.80;22.70
820;DHT22;392;48.838;2.322;2023-02-28T10:02:17;3.80;22.20
820;DHT22;392;48.838;2.322;2023-02-28T10:04:53;3.80;22.50
820;DHT22;392;48.838;2.322;2023-02-28T10:07:37;3.90;22.40
820;DHT22;392;48.838;2.322;2023-02-28T10:10:22;4.10;22.20
820;DHT22;392;48.838;2.322;2023-02-28T10:12:53;4.20;22.10
820;DHT22;392;48.838;2.322;2023-02-28T10:15:24;4.30;21.80
820;DHT22;392;48.838;2.322;2023-02-28T10:17:56;4.40;21.50
820;DHT22;392;48.838;2.322;2023-02-28T10:20:28;4.40;21.10
820;DHT22;392;48.838;2.322;2023-02-28T10:23:00;4.50;20.50
820;DHT22;392;48.838;2.322;2023-02-28T10:25:34;4.60;21.20
820;DHT22;392;48.838;2.322;2023-02-28T10:28:10;4.60;20.10
820;DHT22;392;48.838;2.322;2023-02-28T10:30:42;4.60;20.40
820;DHT22;392;48.838;2.322;2023-02-28T10:33:19;4.70;19.30
820;DHT22;392;48.838;2.322;2023-02-28T10:35:51;4.60;18.60
820;DHT22;392;48.838;2.322;2023-02-28T10:38:21;4.60;18.30
820;DHT22;392;48.838;2.322;2023-02-28T10:40:50;4.60;18.30
820;DHT22;392;48.838;2.322;2023-02-28T10:43:22;4.60;17.20
820;DHT22;392;48.838;2.322;2023-02-28T10:46:11;4.60;17.00
820;DHT22;392;48.838;2.322;2023-02-28T10:48:43;4.60;16.90
820;DHT22;392;48.838;2.322;2023-02-28T10:51:13;4.60;16.30
820;DHT22;392;48.838;2.322;2023-02-28T10:53:49;4.60;16.60
820;DHT22;392;48.838;2.322;2023-02-28T10:56:20;4.70;16.60
820;DHT22;392;48.838;2.322;2023-02-28T10:58:54;4.80;16.50
820;DHT22;392;48.838;2.322;2023-02-28T11:01:25;4.90;15.70
820;DHT22;392;48.838;2.322;2023-02-28T11:04:17;4.90;15.90
820;DHT22;392;48.838;2.322;2023-02-28T11:06:57;4.80;15.50
820;DHT22;392;48.838;2.322;2023-02-28T11:09:29;4.70;15.40
820;DHT22;392;48.838;2.322;2023-02-28T11:12:00;4.80;15.20
820;DHT22;392;48.838;2.322;2023-02-28T11:14:29;4.90;14.30
820;DHT22;392;48.838;2.322;2023-02-28T11:17:00;4.90;13.50
820;DHT22;392;48.838;2.322;2023-02-28T11:19:40;5.00;12.00
820;DHT22;392;48.838;2.322;2023-02-28T11:22:20;5.00;12.00
820;DHT22;392;48.838;2.322;2023-02-28T11:24:51;5.20;11.90
820;DHT22;392;48.838;2.322;2023-02-28T11:27:47;5.40;11.60
820;DHT22;392;48.838;2.322;2023-02-28T11:30:32;5.50;12.00
820;DHT22;392;48.838;2.322;2023-02-28T11:33:01;5.60;12.00
820;DHT22;392;48.838;2.322;2023-02-28T11:35:50;5.70;11.60
820;DHT22;392;48.838;2.322;2023-02-28T11:38:20;5.70;11.10
820;DHT22;392;48.838;2.322;2023-02-28T11:40:55;5.60;11.60
820;DHT22;392;48.838;2.322;2023-02-28T11:43:37;5.70;12.20
820;DHT22;392;48.838;2.322;2023-02-28T11:46:23;5.70;13.10
820;DHT22;392;48.838;2.322;2023-02-28T11:49:00;5.90;12.30
820;DHT22;392;48.838;2.322;2023-02-28T11:51:34;6.00;12.10
820;DHT22;392;48.838;2.322;2023-02-28T11:54:23;6.10;12.50
820;DHT22;392;48.838;2.322;2023-02-28T11:57:03;6.30;12.60
820;DHT22;392;48.838;2.322;2023-02-28T11:59:50;6.60;11.30
820;DHT22;392;48.838;2.322;2023-02-28T12:02:26;6.80;10.60
820;DHT22;392;48.838;2.322;2023-02-28T12:05:12;7.10;10.20
820;DHT22;392;48.838;2.322;2023-02-28T12:07:59;7.20;9.20
820;DHT22;392;48.838;2.322;2023-02-28T12:10:36;7.00;9.40
820;DHT22;392;48.838;2.322;2023-02-28T12:13:18;6.80;10.10
820;DHT22;392;48.838;2.322;2023-02-28T12:16:07;7.00;8.90
820;DHT22;392;48.838;2.322;2023-02-28T12:19:05;7.00;9.20
820;DHT22;392;48.838;2.322;2023-02-28T12:21:50;7.60;9.10
820;DHT22;392;48.838;2.322;2023-02-28T12:27:33;9.70;5.10
820;DHT22;392;48.838;2.322;2023-02-28T12:30:05;10.50;4.20
820;DHT22;392;48.838;2.322;2023-02-28T12:32:43;11.40;2.60
820;DHT22;392;48.838;2.322;2023-02-28T12:35:14;11.60;2.40
820;DHT22;392;48.838;2.322;2023-02-28T12:37:47;11.60;1.80
820;DHT22;392;48.838;2.322;2023-02-28T12:40:21;11.10;2.20
820;DHT22;392;48.838;2.322;2023-02-28T12:42:52;10.30;2.90
820;DHT22;392;48.838;2.322;2023-02-28T12:45:23;9.50;4.20
820;DHT22;392;48.838;2.322;2023-02-28T12:47:56;9.20;4.50
820;DHT22;392;48.838;2.322;2023-02-28T12:50:25;9.60;4.40
820;DHT22;392;48.838;2.322;2023-02-28T12:52:59;10.40;2.70
820;DHT22;392;48.838;2.322;2023-02-28T12:55:33;11.10;1.90
820;DHT22;392;48.838;2.322;2023-02-28T12:58:12;10.90;1.70
820;DHT22;392;48.838;2.322;2023-02-28T13:00:55;10.40;2.00
820;DHT22;392;48.838;2.322;2023-02-28T13:03:52;10.60;2.40
820;DHT22;392;48.838;2.322;2023-02-28T13:06:50;11.40;1.50
820;DHT22;392;48.838;2.322;2023-02-28T13:09:38;12.00;1.00
820;DHT22;392;48.838;2.322;2023-02-28T13:12:13;12.10;1.00
820;DHT22;392;48.838;2.322;2023-02-28T13:14:43;12.30;1.00
820;DHT22;392;48.838;2.322;2023-02-28T13:17:12;12.40;1.00
820;DHT22;392;48.838;2.322;2023-02-28T13:19:46;12.50;1.00
820;DHT22;392;48.838;2.322;2023-02-28T13:22:38;12.80;1.00
820;DHT22;392;48.838;2.322;2023-02-28T13:35:35;11.80;1.00
820;DHT22;392;48.838;2.322;2023-02-28T13:38:41;12.10;1.00
820;DHT22;392;48.838;2.322;2023-02-28T13:41:41;12.70;1.00
820;DHT22;392;48.838;2.322;2023-02-28T13:44:11;12.80;1.00
820;DHT22;392;48.838;2.322;2023-02-28T13:50:14;12.00;1.00
820;DHT22;392;48.838;2.322;2023-02-28T13:52:53;10.70;1.00
820;DHT22;392;48.838;2.322;2023-02-28T13:55:32;10.10;2.50
820;DHT22;392;48.838;2.322;2023-02-28T13:58:16;10.00;2.20
820;DHT22;392;48.838;2.322;2023-02-28T14:01:26;9.80;3.10
820;DHT22;392;48.838;2.322;2023-02-28T14:04:16;9.90;2.40
820;DHT22;392;48.838;2.322;2023-02-28T14:06:57;10.20;1.00
820;DHT22;392;48.838;2.322;2023-02-28T14:09:28;10.50;1.00
820;DHT22;392;48.838;2.322;2023-02-28T14:11:58;11.00;1.00
820;DHT22;392;48.838;2.322;2023-02-28T14:15:17;11.20;1.00
820;DHT22;392;48.838;2.322;2023-02-28T14:18:16;11.10;1.00
820;DHT22;392;48.838;2.322;2023-02-28T14:20:47;10.60;1.00
820;DHT22;392;48.838;2.322;2023-02-28T14:23:25;9.90;1.40
820;DHT22;392;48.838;2.322;2023-02-28T14:26:04;9.10;2.00
820;DHT22;392;48.838;2.322;2023-02-28T14:28:52;8.40;3.00
820;DHT22;392;48.838;2.322;2023-02-28T14:31:32;8.00;3.60
820;DHT22;392;48.838;2.322;2023-02-28T14:34:15;7.70;3.90
820;DHT22;392;48.838;2.322;2023-02-28T14:36:48;7.40;3.40
820;DHT22;392;48.838;2.322;2023-02-28T14:39:21;7.20;4.00
820;DHT22;392;48.838;2.322;2023-02-28T14:41:49;7.20;4.70
820;DHT22;392;48.838;2.322;2023-02-28T14:44:19;7.20;4.70
820;DHT22;392;48.838;2.322;2023-02-28T14:46:50;7.20;4.50
820;DHT22;392;48.838;2.322;2023-02-28T14:49:21;7.50;4.10
820;DHT22;392;48.838;2.322;2023-02-28T14:52:02;7.80;3.40
820;DHT22;392;48.838;2.322;2023-02-28T14:54:37;8.00;2.90
820;DHT22;392;48.838;2.322;2023-02-28T14:57:05;7.90;3.10
820;DHT22;392;48.838;2.322;2023-02-28T14:59:34;7.60;3.00
820;DHT22;392;48.838;2.322;2023-02-28T15:02:21;7.40;3.20
820;DHT22;392;48.838;2.322;2023-02-28T15:04:54;7.20;3.10
820;DHT22;392;48.838;2.322;2023-02-28T15:07:23;7.10;3.50
820;DHT22;392;48.838;2.322;2023-02-28T15:10:09;7.00;3.80
820;DHT22;392;48.838;2.322;2023-02-28T15:12:40;7.00;3.90
820;DHT22;392;48.838;2.322;2023-02-28T15:15:15;7.00;4.10
820;DHT22;392;48.838;2.322;2023-02-28T15:17:45;7.00;4.20
820;DHT22;392;48.838;2.322;2023-02-28T15:20:16;7.10;3.90
820;DHT22;392;48.838;2.322;2023-02-28T15:22:46;7.00;4.20
820;DHT22;392;48.838;2.322;2023-02-28T15:25:19;7.00;3.60
820;DHT22;392;48.838;2.322;2023-02-28T15:27:50;6.90;3.70
820;DHT22;392;48.838;2.322;2023-02-28T15:30:23;6.80;3.70
820;DHT22;392;48.838;2.322;2023-02-28T15:33:07;6.80;3.70
820;DHT22;392;48.838;2.322;2023-02-28T15:35:46;6.60;4.20
820;DHT22;392;48.838;2.322;2023-02-28T15:38:18;6.50;3.50
820;DHT22;392;48.838;2.322;2023-02-28T15:40:52;6.40;3.70
820;DHT22;392;48.838;2.322;2023-02-28T15:43:25;6.30;3.90
820;DHT22;392;48.838;2.322;2023-02-28T15:45:57;6.30;4.00
820;DHT22;392;48.838;2.322;2023-02-28T15:48:28;6.20;4.10
820;DHT22;392;48.838;2.322;2023-02-28T15:50:57;6.30;4.30
820;DHT22;392;48.838;2.322;2023-02-28T15:53:32;6.30;4.30
820;DHT22;392;48.838;2.322;2023-02-28T15:56:04;6.30;4.50
820;DHT22;392;48.838;2.322;2023-02-28T15:58:35;6.30;4.60
820;DHT22;392;48.838;2.322;2023-02-28T16:01:17;6.40;4.90
820;DHT22;392;48.838;2.322;2023-02-28T16:03:48;6.40;5.00
820;DHT22;392;48.838;2.322;2023-02-28T16:06:38;6.40;5.00
820;DHT22;392;48.838;2.322;2023-02-28T16:09:10;6.30;5.00
820;DHT22;392;48.838;2.322;2023-02-28T16:11:43;6.30;4.50
820;DHT22;392;48.838;2.322;2023-02-28T16:14:14;6.20;4.60
820;DHT22;392;48.838;2.322;2023-02-28T16:16:44;6.00;4.70
820;DHT22;392;48.838;2.322;2023-02-28T16:19:13;6.00;4.60
820;DHT22;392;48.838;2.322;2023-02-28T16:21:40;6.00;4.50
820;DHT22;392;48.838;2.322;2023-02-28T16:24:08;5.90;4.40
820;DHT22;392;48.838;2.322;2023-02-28T16:26:36;5.90;4.60
820;DHT22;392;48.838;2.322;2023-02-28T16:29:08;5.80;4.80
820;DHT22;392;48.838;2.322;2023-02-28T16:31:39;5.80;4.90
820;DHT22;392;48.838;2.322;2023-02-28T16:34:06;5.90;5.50
820;DHT22;392;48.838;2.322;2023-02-28T16:36:33;5.90;5.70
820;DHT22;392;48.838;2.322;2023-02-28T16:39:01;5.90;6.00
820;DHT22;392;48.838;2.322;2023-02-28T16:41:28;5.90;6.50
820;DHT22;392;48.838;2.322;2023-02-28T16:43:57;5.90;6.50
820;DHT22;392;48.838;2.322;2023-02-28T16:46:31;5.90;6.50
820;DHT22;392;48.838;2.322;2023-02-28T16:49:04;5.80;6.70
820;DHT22;392;48.838;2.322;2023-02-28T16:51:31;5.70;6.60
820;DHT22;392;48.838;2.322;2023-02-28T16:53:59;5.70;6.60
820;DHT22;392;48.838;2.322;2023-02-28T16:56:26;5.70;6.30
820;DHT22;392;48.838;2.322;2023-02-28T16:58:57;5.60;6.30
820;DHT22;392;48.838;2.322;2023-02-28T17:01:29;5.60;6.70
820;DHT22;392;48.838;2.322;2023-02-28T17:03:56;5.70;6.10
820;DHT22;392;48.838;2.322;2023-02-28T17:06:26;5.60;5.40
820;DHT22;392;48.838;2.322;2023-02-28T17:08:56;5.60;5.40
820;DHT22;392;48.838;2.322;2023-02-28T17:11:24;5.50;5.70
820;DHT22;392;48.838;2.322;2023-02-28T17:13:52;5.50;5.90
820;DHT22;392;48.838;2.322;2023-02-28T17:16:25;5.50;5.80
820;DHT22;392;48.838;2.322;2023-02-28T17:18:59;5.50;6.30
820;DHT22;392;48.838;2.322;2023-02-28T17:21:33;5.50;6.00
820;DHT22;392;48.838;2.322;2023-02-28T17:24:08;5.40;5.70
820;DHT22;392;48.838;2.322;2023-02-28T17:26:38;5.50;5.50
820;DHT22;392;48.838;2.322;2023-02-28T17:29:13;5.50;6.20
820;DHT22;392;48.838;2.322;2023-02-28T17:31:41;5.40;5.30
820;DHT22;392;48.838;2.322;2023-02-28T17:34:10;5.40;5.70
820;DHT22;392;48.838;2.322;2023-02-28T17:36:44;5.40;5.90
820;DHT22;392;48.838;2.322;2023-02-28T17:39:12;5.30;6.10
820;DHT22;392;48.838;2.322;2023-02-28T17:41:41;5.30;6.10
820;DHT22;392;48.838;2.322;2023-02-28T17:44:08;5.30;6.10
820;DHT22;392;48.838;2.322;2023-02-28T17:46:36;5.30;5.90
820;DHT22;392;48.838;2.322;2023-02-28T17:49:03;5.30;6.10
820;DHT22;392;48.838;2.322;2023-02-28T17:51:32;5.30;6.10
820;DHT22;392;48.838;2.322;2023-02-28T17:54:00;5.40;6.10
820;DHT22;392;48.838;2.322;2023-02-28T17:56:27;5.40;6.20